createdAt,value
2019-05-01T00:01:00.258Z,2.10
2019-05-01T00:03:53.120Z,1.23
2019-05-01T00:06:26.664Z,1.30
2019-05-01T00:08:56.188Z,1.10
2019-05-01T00:11:25.623Z,1.30
2019-05-01T00:13:55.068Z,1.20
2019-05-01T00:16:24.537Z,1.60
2019-05-01T00:18:53.974Z,1.53
2019-05-01T00:21:23.568Z,1.03
2019-05-01T00:23:51.293Z,0.80
2019-05-01T00:26:20.711Z,0.97
2019-05-01T00:28:50.123Z,1.67
2019-05-01T00:31:19.576Z,0.80
2019-05-01T00:33:48.998Z,1.20
2019-05-01T00:36:18.447Z,0.90
2019-05-01T00:38:47.847Z,1.00
2019-05-01T00:41:17.273Z,0.93
2019-05-01T00:43:46.736Z,0.90
2019-05-01T00:46:16.168Z,1.33
2019-05-01T00:48:45.597Z,1.17
2019-05-01T00:51:15.022Z,1.27
2019-05-01T00:53:44.435Z,1.03
2019-05-01T00:56:36.891Z,1.00
2019-05-01T00:59:21.931Z,1.30
2019-05-01T01:02:25.618Z,1.10
2019-05-01T01:04:55.109Z,1.43
2019-05-01T01:07:24.531Z,2.00
2019-05-01T01:09:53.992Z,1.87
2019-05-01T01:12:23.501Z,2.10
2019-05-01T01:14:53.896Z,2.60
2019-05-01T01:17:23.347Z,2.57
2019-05-01T01:19:52.763Z,2.03
2019-05-01T01:22:22.216Z,2.33
2019-05-01T01:24:51.635Z,2.30
2019-05-01T01:27:21.031Z,2.13
2019-05-01T01:29:50.451Z,1.90
2019-05-01T01:32:19.886Z,3.20
2019-05-01T01:34:49.308Z,3.47
2019-05-01T01:37:18.717Z,2.80
2019-05-01T01:39:48.141Z,3.20
2019-05-01T01:42:17.560Z,2.90
2019-05-01T01:45:11.823Z,2.53
2019-05-01T01:48:09.252Z,2.67
2019-05-01T01:50:39.014Z,2.40
2019-05-01T01:53:08.452Z,3.00
2019-05-01T01:55:37.970Z,2.30
2019-05-01T01:58:07.382Z,2.20
2019-05-01T02:01:08.976Z,2.53
2019-05-01T02:03:32.169Z,2.50
2019-05-01T02:06:01.593Z,2.70
2019-05-01T02:08:31.025Z,2.67
2019-05-01T02:11:00.472Z,2.57
2019-05-01T02:13:29.863Z,2.90
2019-05-01T02:15:59.411Z,2.90
2019-05-01T02:18:28.832Z,2.53
2019-05-01T02:20:58.349Z,2.40
2019-05-01T02:23:27.786Z,2.80
2019-05-01T02:25:57.286Z,3.17
2019-05-01T02:28:43.495Z,2.70
2019-05-01T02:31:28.291Z,2.13
2019-05-01T02:33:53.852Z,2.53
2019-05-01T02:36:23.664Z,2.10
2019-05-01T02:38:53.564Z,2.40
2019-05-01T02:41:22.969Z,2.73
2019-05-01T02:43:52.393Z,2.60
2019-05-01T02:46:21.853Z,3.17
2019-05-01T02:48:56.509Z,2.57
2019-05-01T02:51:25.951Z,2.07
2019-05-01T02:53:55.361Z,2.83
2019-05-01T02:56:39.823Z,2.57
2019-05-01T02:59:09.239Z,2.00
2019-05-01T03:01:46.879Z,2.20
2019-05-01T03:04:10.039Z,2.17
2019-05-01T03:06:39.474Z,2.20
2019-05-01T03:09:09.048Z,3.10
2019-05-01T03:11:39.870Z,2.43
2019-05-01T03:14:15.027Z,2.57
2019-05-01T03:16:44.478Z,2.57
2019-05-01T03:19:32.768Z,3.17
2019-05-01T03:22:10.986Z,2.37
2019-05-01T03:24:40.391Z,2.10
2019-05-01T03:27:09.823Z,2.40
2019-05-01T03:29:39.273Z,2.50
2019-05-01T03:32:19.036Z,3.00
2019-05-01T03:34:39.965Z,2.17
2019-05-01T03:37:09.375Z,3.07
2019-05-01T03:39:38.823Z,2.10
2019-05-01T03:42:08.310Z,2.00
2019-05-01T03:44:37.841Z,2.30
2019-05-01T03:47:07.256Z,1.90
2019-05-01T03:49:36.675Z,1.80
2019-05-01T03:52:06.093Z,2.37
2019-05-01T03:54:35.521Z,2.20
2019-05-01T03:57:04.956Z,1.70
2019-05-01T03:59:34.372Z,2.47
2019-05-01T04:02:33.564Z,1.80
2019-05-01T04:04:56.874Z,2.13
2019-05-01T04:07:26.330Z,1.83
2019-05-01T04:09:55.797Z,1.70
2019-05-01T04:12:25.222Z,2.30
2019-05-01T04:14:54.609Z,1.60
2019-05-01T04:17:31.215Z,1.90
2019-05-01T04:20:00.655Z,1.70
2019-05-01T04:22:30.075Z,1.80
2019-05-01T04:24:59.473Z,2.10
2019-05-01T04:27:33.242Z,1.90
2019-05-01T04:30:27.336Z,1.77
2019-05-01T04:32:59.528Z,1.20
2019-05-01T04:35:51.115Z,1.50
2019-05-01T04:38:20.544Z,1.20
2019-05-01T04:40:50.138Z,2.23
2019-05-01T04:43:19.584Z,1.50
2019-05-01T04:45:49.145Z,2.10
2019-05-01T04:48:18.579Z,1.60
2019-05-01T04:50:48.034Z,1.90
2019-05-01T04:53:17.572Z,1.13
2019-05-01T04:55:47.040Z,1.60
2019-05-01T04:58:16.474Z,3.20
2019-05-01T05:00:45.942Z,1.63
2019-05-01T05:03:18.366Z,1.67
2019-05-01T05:05:48.138Z,0.83
2019-05-01T05:08:17.624Z,1.37
2019-05-01T05:10:48.604Z,1.00
2019-05-01T05:13:31.935Z,1.47
2019-05-01T05:16:26.040Z,1.53
2019-05-01T05:18:55.522Z,1.37
2019-05-01T05:21:24.941Z,1.37
2019-05-01T05:23:54.428Z,1.30
2019-05-01T05:26:23.847Z,1.40
2019-05-01T05:28:53.279Z,1.07
2019-05-01T05:31:23.336Z,1.40
2019-05-01T05:33:52.972Z,1.40
2019-05-01T05:36:22.421Z,1.50
2019-05-01T05:39:02.681Z,1.40
2019-05-01T05:41:32.172Z,1.20
2019-05-01T05:44:01.872Z,1.30
2019-05-01T05:46:31.294Z,1.40
2019-05-01T05:49:00.695Z,1.03
2019-05-01T05:51:51.744Z,1.47
2019-05-01T05:54:59.295Z,1.20
2019-05-01T05:58:00.728Z,1.67
2019-05-01T06:00:45.029Z,1.30
2019-05-01T06:03:34.889Z,1.17
2019-05-01T06:06:31.285Z,1.67
2019-05-01T06:09:01.392Z,1.40
2019-05-01T06:11:48.574Z,1.40
2019-05-01T06:14:36.863Z,1.10
2019-05-01T06:17:34.206Z,1.20
2019-05-01T06:20:25.887Z,1.17
2019-05-01T06:23:20.583Z,1.20
2019-05-01T06:25:49.523Z,1.00
2019-05-01T06:28:19.848Z,1.10
2019-05-01T06:30:50.205Z,1.20
2019-05-01T06:33:19.646Z,1.07
2019-05-01T06:35:49.044Z,1.67
2019-05-01T06:38:18.478Z,1.50
2019-05-01T06:40:53.018Z,1.00
2019-05-01T06:43:38.762Z,1.20
2019-05-01T06:46:42.300Z,1.20
2019-05-01T06:49:30.972Z,1.30
2019-05-01T06:52:00.845Z,0.97
2019-05-01T06:54:30.275Z,1.20
2019-05-01T06:56:59.936Z,1.20
2019-05-01T06:59:31.399Z,1.27
2019-05-01T07:02:00.518Z,1.57
2019-05-01T07:04:35.781Z,1.90
2019-05-01T07:07:02.090Z,1.43
2019-05-01T07:09:33.413Z,1.13
2019-05-01T07:12:03.511Z,1.30
2019-05-01T07:14:32.955Z,1.10
2019-05-01T07:17:02.399Z,1.00
2019-05-01T07:20:12.031Z,1.03
2019-05-01T07:22:42.351Z,1.07
2019-05-01T07:25:11.421Z,1.00
2019-05-01T07:27:40.878Z,1.03
2019-05-01T07:30:19.635Z,1.00
2019-05-01T07:32:47.840Z,1.10
2019-05-01T07:35:17.249Z,1.20
2019-05-01T07:37:46.680Z,0.90
2019-05-01T07:40:16.134Z,1.00
2019-05-01T07:42:48.467Z,0.73
2019-05-01T07:45:38.997Z,1.10
2019-05-01T07:48:06.828Z,0.90
2019-05-01T07:50:36.341Z,0.90
2019-05-01T07:53:05.784Z,0.70
2019-05-01T07:55:38.416Z,1.03
2019-05-01T07:58:10.605Z,0.67
2019-05-01T08:00:55.843Z,0.73
2019-05-01T08:03:25.302Z,0.70
2019-05-01T08:05:54.728Z,0.70
2019-05-01T08:08:24.174Z,0.83
2019-05-01T08:10:53.580Z,0.90
2019-05-01T08:13:23.072Z,0.77
2019-05-01T08:15:52.501Z,0.70
2019-05-01T08:18:28.040Z,0.80
2019-05-01T08:21:12.723Z,0.77
2019-05-01T08:23:42.663Z,0.70
2019-05-01T08:26:13.423Z,0.77
2019-05-01T08:29:06.937Z,0.80
2019-05-01T08:32:03.464Z,0.77
2019-05-01T08:34:31.077Z,0.67
2019-05-01T08:37:03.067Z,0.67
2019-05-01T08:39:32.503Z,0.90
2019-05-01T08:42:03.128Z,1.30
2019-05-01T08:44:36.961Z,0.70
2019-05-01T08:47:20.718Z,0.60
2019-05-01T08:49:54.720Z,0.90
2019-05-01T08:52:24.296Z,1.00
2019-05-01T08:54:54.924Z,0.60
2019-05-01T08:57:24.440Z,0.80
2019-05-01T08:59:55.798Z,0.80
2019-05-01T09:02:25.102Z,0.80
2019-05-01T09:05:02.231Z,0.87
2019-05-01T09:07:25.767Z,1.00
2019-05-01T09:09:55.187Z,0.80
2019-05-01T09:12:24.705Z,0.70
2019-05-01T09:14:54.173Z,0.80
2019-05-01T09:17:23.610Z,0.90
2019-05-01T09:19:53.020Z,0.80
2019-05-01T09:22:22.462Z,1.10
2019-05-01T09:24:52.462Z,0.83
2019-05-01T09:27:44.163Z,0.90
2019-05-01T09:30:26.829Z,0.83
2019-05-01T09:32:55.639Z,1.00
2019-05-01T09:35:25.107Z,0.90
2019-05-01T09:37:54.563Z,0.83
2019-05-01T09:40:23.972Z,0.90
2019-05-01T09:42:54.735Z,0.70
2019-05-01T09:45:24.588Z,0.97
2019-05-01T09:47:54.030Z,0.70
2019-05-01T09:50:25.750Z,1.10
2019-05-01T09:53:16.551Z,0.70
2019-05-01T09:55:55.745Z,0.70
2019-05-01T09:58:25.328Z,0.70
2019-05-01T10:00:57.836Z,0.80
2019-05-01T10:03:27.337Z,0.70
2019-05-01T10:05:56.904Z,0.70
2019-05-01T10:08:26.368Z,0.87
2019-05-01T10:10:59.899Z,0.80
2019-05-01T10:13:26.959Z,0.80
2019-05-01T10:15:56.390Z,0.57
2019-05-01T10:18:25.819Z,1.07
2019-05-01T10:20:55.344Z,0.80
2019-05-01T10:23:24.766Z,0.90
2019-05-01T10:25:56.723Z,0.77
2019-05-01T10:28:51.624Z,0.70
2019-05-01T10:31:42.972Z,0.70
2019-05-01T10:34:20.487Z,0.90
2019-05-01T10:36:54.620Z,0.90
2019-05-01T10:39:22.028Z,0.73
2019-05-01T10:41:51.525Z,0.90
2019-05-01T10:44:21.070Z,0.70
2019-05-01T10:46:50.506Z,1.00
2019-05-01T10:49:19.932Z,0.90
2019-05-01T10:51:49.379Z,0.73
2019-05-01T10:54:18.785Z,0.83
2019-05-01T10:56:48.222Z,0.90
2019-05-01T10:59:17.677Z,1.43
2019-05-01T11:01:51.189Z,0.83
2019-05-01T11:04:20.626Z,1.00
2019-05-01T11:06:50.036Z,0.90
2019-05-01T11:09:19.492Z,1.27
2019-05-01T11:11:48.960Z,0.77
2019-05-01T11:14:18.382Z,0.70
2019-05-01T11:16:47.843Z,1.13
2019-05-01T11:19:17.305Z,1.00
2019-05-01T11:21:46.801Z,0.90
2019-05-01T11:24:16.260Z,0.83
2019-05-01T11:26:45.652Z,1.03
2019-05-01T11:29:15.087Z,0.80
2019-05-01T11:32:06.998Z,0.83
2019-05-01T11:34:55.281Z,0.90
2019-05-01T11:37:43.573Z,0.60
2019-05-01T11:40:18.076Z,0.80
2019-05-01T11:42:47.479Z,0.70
2019-05-01T11:45:16.940Z,0.80
2019-05-01T11:47:46.411Z,0.70
2019-05-01T11:50:15.863Z,0.90
2019-05-01T11:52:45.433Z,0.80
2019-05-01T11:55:14.950Z,0.80
2019-05-01T12:00:14.774Z,0.80
2019-05-01T12:02:44.232Z,0.80
2019-05-01T12:05:13.993Z,0.80
2019-05-01T12:07:43.408Z,0.90
2019-05-01T12:10:14.379Z,0.80
2019-05-01T12:12:44.129Z,0.70
2019-05-01T12:15:13.608Z,0.83
2019-05-01T12:17:46.537Z,0.90
2019-05-01T12:20:16.037Z,0.60
2019-05-01T12:22:47.963Z,1.00
2019-05-01T12:25:16.772Z,0.90
2019-05-01T12:27:46.332Z,1.20
2019-05-01T12:30:17.052Z,0.80
2019-05-01T12:32:46.522Z,0.70
2019-05-01T12:35:16.045Z,0.83
2019-05-01T12:37:45.733Z,0.73
2019-05-01T12:40:17.160Z,0.77
2019-05-01T12:42:46.623Z,1.03
2019-05-01T12:45:16.408Z,0.80
2019-05-01T12:47:57.521Z,1.00
2019-05-01T12:50:26.928Z,0.90
2019-05-01T12:53:18.236Z,1.00
2019-05-01T12:56:12.436Z,0.80
2019-05-01T12:58:41.879Z,1.00
2019-05-01T13:01:11.293Z,0.77
2019-05-01T13:03:40.768Z,0.60
2019-05-01T13:06:10.187Z,0.73
2019-05-01T13:08:39.700Z,0.80
2019-05-01T13:11:09.154Z,0.90
2019-05-01T13:13:38.635Z,1.47
2019-05-01T13:16:08.163Z,0.80
2019-05-01T13:18:37.673Z,1.00
2019-05-01T13:21:07.151Z,1.10
2019-05-01T13:23:36.582Z,0.70
2019-05-01T13:26:12.568Z,0.90
2019-05-01T13:28:48.246Z,0.80
2019-05-01T13:31:39.699Z,1.20
2019-05-01T13:34:09.820Z,0.90
2019-05-01T13:36:39.445Z,0.87
2019-05-01T13:39:09.899Z,1.47
2019-05-01T13:41:39.460Z,1.07
2019-05-01T13:44:08.891Z,0.90
2019-05-01T13:46:38.460Z,0.90
2019-05-01T13:49:07.940Z,0.70
2019-05-01T13:51:37.379Z,0.90
2019-05-01T13:54:08.951Z,0.80
2019-05-01T13:56:38.633Z,0.83
2019-05-01T13:59:10.866Z,1.00
2019-05-01T14:01:40.328Z,1.10
2019-05-01T14:04:10.408Z,1.33
2019-05-01T14:06:39.862Z,0.90
2019-05-01T14:09:12.460Z,0.90
2019-05-01T14:14:14.902Z,1.10
2019-05-01T14:16:44.353Z,0.80
2019-05-01T14:19:13.794Z,0.90
2019-05-01T14:21:52.267Z,0.87
2019-05-01T14:24:33.232Z,1.00
2019-05-01T14:27:02.655Z,0.80
2019-05-01T14:29:32.084Z,1.23
2019-05-01T14:32:01.538Z,1.50
2019-05-01T14:34:30.960Z,0.80
2019-05-01T14:37:00.388Z,1.30
2019-05-01T14:39:29.831Z,0.93
2019-05-01T14:41:59.287Z,1.00
2019-05-01T14:44:36.553Z,1.00
2019-05-01T14:46:59.868Z,0.97
2019-05-01T14:49:29.338Z,1.10
2019-05-01T14:51:58.776Z,0.90
2019-05-01T14:54:28.327Z,1.03
2019-05-01T14:56:57.849Z,1.00
2019-05-01T14:59:27.293Z,1.23
2019-05-01T15:01:56.733Z,0.90
2019-05-01T15:04:26.158Z,0.93
2019-05-01T15:06:55.592Z,1.20
2019-05-01T15:09:25.063Z,1.90
2019-05-01T15:11:54.537Z,1.77
2019-05-01T15:14:43.317Z,1.17
2019-05-01T15:17:43.956Z,1.10
2019-05-01T15:20:13.423Z,1.03
2019-05-01T15:22:42.865Z,1.03
2019-05-01T15:25:12.304Z,1.10
2019-05-01T15:27:41.734Z,1.30
2019-05-01T15:30:11.183Z,1.50
2019-05-01T15:32:40.605Z,1.10
2019-05-01T15:35:10.060Z,1.47
2019-05-01T15:37:39.484Z,1.23
2019-05-01T15:40:30.767Z,0.90
2019-05-01T15:43:21.793Z,1.00
2019-05-01T15:45:51.240Z,1.37
2019-05-01T15:48:20.689Z,1.07
2019-05-01T15:50:50.178Z,1.20
2019-05-01T15:53:19.620Z,1.30
2019-05-01T15:55:49.987Z,2.13
2019-05-01T15:58:19.424Z,2.00
2019-05-01T16:00:48.868Z,1.40
2019-05-01T16:03:18.295Z,1.33
2019-05-01T16:05:47.864Z,1.10
2019-05-01T16:08:17.294Z,2.43
2019-05-01T16:10:57.627Z,2.30
2019-05-01T16:13:27.046Z,1.50
2019-05-01T16:15:56.492Z,1.10
2019-05-01T16:18:25.932Z,1.67
2019-05-01T16:20:55.407Z,1.23
2019-05-01T16:23:24.828Z,1.53
2019-05-01T16:25:54.269Z,1.40
2019-05-01T16:28:23.707Z,1.63
2019-05-01T16:30:53.176Z,1.30
2019-05-01T16:33:22.607Z,1.00
2019-05-01T16:35:52.033Z,2.20
2019-05-01T16:38:31.745Z,3.00
2019-05-01T16:41:07.735Z,1.73
2019-05-01T16:43:37.220Z,1.30
2019-05-01T16:46:06.659Z,1.40
2019-05-01T16:48:36.107Z,1.80
2019-05-01T16:51:05.629Z,2.63
2019-05-01T16:53:35.080Z,1.97
2019-05-01T16:56:04.505Z,1.40
2019-05-01T16:58:34.642Z,1.87
2019-05-01T17:01:09.120Z,1.90
2019-05-01T17:03:46.878Z,2.07
2019-05-01T17:06:41.287Z,1.40
2019-05-01T17:09:28.912Z,1.50
2019-05-01T17:11:58.417Z,1.50
2019-05-01T17:14:28.131Z,2.37
2019-05-01T17:16:57.569Z,1.90
2019-05-01T17:19:26.998Z,2.03
2019-05-01T17:21:56.435Z,1.83
2019-05-01T17:24:25.887Z,2.00
2019-05-01T17:26:55.304Z,1.80
2019-05-01T17:29:24.773Z,1.67
2019-05-01T17:31:54.213Z,2.10
2019-05-01T17:34:25.581Z,2.20
2019-05-01T17:36:54.802Z,2.17
2019-05-01T17:39:24.476Z,2.30
2019-05-01T17:41:57.604Z,2.67
2019-05-01T17:44:26.642Z,2.33
2019-05-01T17:46:56.095Z,2.03
2019-05-01T17:49:25.516Z,3.50
2019-05-01T17:51:54.992Z,3.40
2019-05-01T17:54:24.442Z,2.53
2019-05-01T17:56:55.730Z,2.40
2019-05-01T17:59:24.996Z,2.37
2019-05-01T18:02:16.079Z,2.50
2019-05-01T18:04:58.180Z,2.20
2019-05-01T18:07:33.049Z,3.30
2019-05-01T18:09:59.930Z,2.97
2019-05-01T18:12:30.261Z,2.27
2019-05-01T18:14:59.741Z,1.80
2019-05-01T18:17:29.202Z,2.53
2019-05-01T18:19:58.607Z,2.57
2019-05-01T18:22:58.713Z,2.10
2019-05-01T18:25:35.001Z,2.70
2019-05-01T18:28:29.967Z,2.70
2019-05-01T18:30:58.311Z,3.47
2019-05-01T18:33:27.862Z,2.80
2019-05-01T18:35:57.284Z,4.57
2019-05-01T18:38:32.471Z,3.80
2019-05-01T18:41:07.347Z,2.73
2019-05-01T18:43:36.826Z,2.60
2019-05-01T18:46:08.279Z,3.73
2019-05-01T18:48:37.763Z,2.40
2019-05-01T18:51:07.204Z,3.40
2019-05-01T18:53:36.665Z,3.37
2019-05-01T18:56:06.957Z,2.73
2019-05-01T18:58:36.473Z,3.33
2019-05-01T19:01:09.365Z,2.90
2019-05-01T19:03:42.513Z,2.90
2019-05-01T19:06:11.668Z,2.90
2019-05-01T19:08:41.090Z,3.60
2019-05-01T19:11:13.047Z,2.60
2019-05-01T19:13:42.722Z,2.80
2019-05-01T19:16:12.221Z,2.47
2019-05-01T19:18:41.736Z,3.70
2019-05-01T19:21:11.275Z,3.20
2019-05-01T19:23:40.739Z,3.47
2019-05-01T19:26:11.918Z,3.77
2019-05-01T19:28:41.385Z,2.87
2019-05-01T19:31:10.820Z,2.90
2019-05-01T19:33:41.778Z,3.40
2019-05-01T19:36:11.467Z,3.07
2019-05-01T19:38:40.986Z,3.03
2019-05-01T19:41:14.075Z,3.10
2019-05-01T19:43:42.165Z,2.83
2019-05-01T19:46:11.839Z,2.87
2019-05-01T19:48:45.311Z,2.43
2019-05-01T19:51:12.513Z,2.87
2019-05-01T19:53:41.997Z,2.60
2019-05-01T19:56:11.438Z,3.07
2019-05-01T19:58:40.818Z,2.47
2019-05-01T20:01:10.252Z,2.20
2019-05-01T20:03:39.687Z,2.63
2019-05-01T20:06:09.168Z,2.33
2019-05-01T20:08:38.604Z,3.83
2019-05-01T20:11:09.737Z,3.27
2019-05-01T20:13:39.181Z,3.07
2019-05-01T20:16:09.778Z,3.33
2019-05-01T20:18:39.205Z,3.10
2019-05-01T20:21:08.630Z,3.87
2019-05-01T20:23:38.028Z,3.13
2019-05-01T20:26:07.469Z,3.43
2019-05-01T20:28:37.464Z,2.83
2019-05-01T20:31:07.042Z,3.23
2019-05-01T20:33:38.898Z,2.70
2019-05-01T20:36:07.913Z,2.70
2019-05-01T20:38:37.371Z,2.33
2019-05-01T20:41:10.131Z,2.40
2019-05-01T20:43:42.873Z,3.13
2019-05-01T20:46:09.065Z,3.67
2019-05-01T20:48:38.496Z,3.20
2019-05-01T20:51:07.934Z,4.00
2019-05-01T20:53:37.458Z,3.80
2019-05-01T20:56:25.487Z,4.83
2019-05-01T20:58:57.853Z,3.63
2019-05-01T21:01:28.354Z,4.13
2019-05-01T21:04:22.494Z,4.37
2019-05-01T21:07:21.331Z,4.73
2019-05-01T21:09:56.803Z,4.93
2019-05-01T21:12:22.059Z,3.40
2019-05-01T21:14:51.508Z,3.90
2019-05-01T21:17:20.932Z,3.90
2019-05-01T21:19:50.337Z,5.10
2019-05-01T21:22:19.879Z,4.00
2019-05-01T21:24:49.335Z,3.40
2019-05-01T21:27:18.774Z,4.50
2019-05-01T21:29:48.199Z,4.20
2019-05-01T21:32:18.403Z,3.50
2019-05-01T21:34:48.780Z,3.80
2019-05-01T21:37:18.221Z,3.63
2019-05-01T21:39:47.644Z,3.97
2019-05-01T21:42:17.138Z,3.80
2019-05-01T21:44:46.668Z,3.07
2019-05-01T21:47:16.077Z,3.20
2019-05-01T21:49:45.519Z,3.43
2019-05-01T21:52:17.922Z,4.03
2019-05-01T21:54:50.046Z,3.53
2019-05-01T21:57:19.132Z,3.03
2019-05-01T21:59:48.405Z,3.87
2019-05-01T22:02:17.832Z,3.10
2019-05-01T22:04:47.250Z,3.77
2019-05-01T22:07:16.695Z,2.93
2019-05-01T22:09:50.409Z,2.63
2019-05-01T22:12:17.327Z,3.23
2019-05-01T22:15:06.312Z,3.10
2019-05-01T22:17:55.768Z,3.23
2019-05-01T22:20:50.080Z,2.83
2019-05-01T22:23:23.135Z,3.73
2019-05-01T22:25:55.288Z,3.20
2019-05-01T22:28:30.826Z,2.20
2019-05-01T22:31:21.811Z,3.40
2019-05-01T22:33:53.003Z,2.73
2019-05-01T22:36:22.444Z,2.97
2019-05-01T22:38:51.854Z,2.87
2019-05-01T22:41:21.293Z,2.60
2019-05-01T22:43:50.715Z,2.13
2019-05-01T22:46:27.699Z,2.83
2019-05-01T22:48:57.137Z,2.37
2019-05-01T22:51:26.396Z,2.63
2019-05-01T22:53:55.812Z,2.90
2019-05-01T22:56:25.782Z,2.70
2019-05-01T22:58:55.280Z,2.77
2019-05-01T23:01:25.787Z,2.30
2019-05-01T23:03:57.089Z,2.97
2019-05-01T23:06:26.502Z,2.73
2019-05-01T23:08:55.919Z,2.30
2019-05-01T23:11:27.017Z,2.60
2019-05-01T23:13:56.437Z,2.50
2019-05-01T23:16:29.037Z,2.83
2019-05-01T23:18:58.951Z,2.10
2019-05-01T23:21:28.384Z,2.20
2019-05-01T23:24:02.028Z,2.43
2019-05-01T23:26:29.109Z,3.07
2019-05-01T23:28:58.535Z,2.33
2019-05-01T23:31:28.023Z,2.63
2019-05-01T23:33:57.554Z,2.20
2019-05-01T23:36:26.989Z,2.23
2019-05-01T23:38:56.418Z,2.40
2019-05-01T23:41:44.757Z,2.00
2019-05-01T23:43:58.215Z,2.30
2019-05-01T23:46:28.123Z,2.10
2019-05-01T23:48:57.552Z,2.17
2019-05-01T23:51:28.641Z,2.23
2019-05-01T23:53:58.107Z,2.60
2019-05-01T23:56:31.140Z,2.17
2019-05-01T23:58:58.685Z,2.40
